Time;durP1;ratioP1;P1;durP2;ratioP2;P2;SDS_P1;SDS_P2;PMS_P1;PMS_P2;Temp;Humidity;BMP_temperature;BMP_pressure;BME280_temperature;BME280_humidity;BME280_pressure;Samples;Min_cycle;Max_cycle;Signal;HPM_P1;HPM_P2
2021/01/20 00:01:35;;;;;;;8.80;7.17;;;;;;;1.51;90.89;99026.37;1804040;78;25146;-78
2021/01/20 00:04:02;;;;;;;8.73;6.63;;;;;;;1.52;90.94;99026.76;1792372;80;25203;-75
2021/01/20 00:06:29;;;;;;;8.33;6.70;;;;;;;1.55;91.42;99025.31;1792347;80;25470;-78
2021/01/20 00:08:55;;;;;;;7.80;5.83;;;;;;;1.50;91.43;99028.59;1792461;80;25059;-77
2021/01/20 00:11:25;;;;;;;7.67;6.40;;;;;;;1.51;91.68;99027.23;1792203;80;25137;-76
2021/01/20 00:13:52;;;;;;;6.27;5.60;;;;;;;1.52;91.78;99028.88;1792283;80;25190;-77
2021/01/20 00:16:19;;;;;;;7.07;5.87;;;;;;;1.47;92.17;99034.32;1801476;77;25096;-77
2021/01/20 00:18:45;;;;;;;8.70;6.00;;;;;;;1.49;92.28;99030.33;1818672;78;25219;-76
2021/01/20 00:21:12;;;;;;;9.03;6.20;;;;;;;1.50;92.51;99022.12;1806709;78;25868;-77
2021/01/20 00:23:38;;;;;;;7.37;5.87;;;;;;;1.46;92.56;99030.04;1824597;77;25508;-77
2021/01/20 00:26:05;;;;;;;7.87;6.30;;;;;;;1.42;92.93;99027.20;1812938;78;25134;-77
2021/01/20 00:28:32;;;;;;;7.67;5.63;;;;;;;1.39;92.70;99024.79;1816763;77;25151;-77
2021/01/20 00:31:01;;;;;;;7.57;5.83;;;;;;;1.44;92.83;99026.70;1804874;78;25047;-75
2021/01/20 00:33:27;;;;;;;8.30;5.67;;;;;;;1.42;92.90;99025.08;1824712;78;25335;-77
2021/01/20 00:35:54;;;;;;;6.73;5.57;;;;;;;1.38;92.75;99021.80;1809939;78;25473;-77
2021/01/20 00:38:21;;;;;;;7.63;5.60;;;;;;;1.39;93.02;99027.81;1792571;80;25123;-76
2021/01/20 00:40:47;;;;;;;6.83;5.30;;;;;;;1.39;93.30;99030.41;1792609;80;25241;-76
2021/01/20 00:43:14;;;;;;;7.60;6.27;;;;;;;1.38;93.10;99028.28;1762993;80;25146;-75
2021/01/20 00:45:41;;;;;;;7.87;6.07;;;;;;;1.40;93.23;99025.15;1792375;80;25264;-75
2021/01/20 00:48:11;;;;;;;8.30;6.83;;;;;;;1.39;93.04;99019.61;1792598;78;25266;-76
2021/01/20 00:50:38;;;;;;;7.80;6.20;;;;;;;1.40;92.94;99029.04;1792013;79;25202;-73
2021/01/20 00:53:05;;;;;;;8.30;6.43;;;;;;;1.41;93.22;99022.95;1784130;78;25229;-76
2021/01/20 00:55:32;;;;;;;7.43;6.10;;;;;;;1.39;93.41;99028.67;1792375;80;25216;-75
2021/01/20 00:57:59;;;;;;;7.30;5.63;;;;;;;1.45;93.78;99030.94;1792415;80;25577;-76
2021/01/20 01:00:26;;;;;;;7.83;5.93;;;;;;;1.44;93.54;99029.72;1792113;80;25592;-74
2021/01/20 01:02:52;;;;;;;8.07;5.63;;;;;;;1.48;93.82;99036.45;1792402;80;25195;-75
2021/01/20 01:05:20;;;;;;;8.17;6.23;;;;;;;1.45;93.72;99027.05;1792410;80;25142;-75
2021/01/20 01:07:48;;;;;;;9.70;7.03;;;;;;;1.46;93.63;99031.34;1810926;78;25164;-75
2021/01/20 01:10:15;;;;;;;8.57;6.60;;;;;;;1.47;93.50;99030.87;1792478;80;25131;-75
2021/01/20 01:12:44;;;;;;;8.20;6.90;;;;;;;1.51;93.91;99021.19;1789783;80;25293;-74
2021/01/20 01:15:11;;;;;;;8.67;6.37;;;;;;;1.53;93.89;99016.78;1792492;79;25684;-76
2021/01/20 01:17:38;;;;;;;9.37;7.10;;;;;;;1.53;93.88;99025.39;1792391;80;25151;-76
2021/01/20 01:20:06;;;;;;;10.17;7.17;;;;;;;1.56;93.87;99026.53;1792367;80;25171;-75
2021/01/20 01:22:33;;;;;;;16.80;9.13;;;;;;;1.58;93.89;99025.16;1796971;78;25138;-76
2021/01/20 01:24:59;;;;;;;13.53;7.33;;;;;;;1.62;93.89;99017.60;1806732;78;25336;-75
2021/01/20 01:27:26;;;;;;;13.13;7.50;;;;;;;1.66;93.89;99021.73;1796980;78;25048;-74
2021/01/20 01:29:55;;;;;;;11.90;7.03;;;;;;;1.69;93.81;99026.73;1800666;78;25154;-75
2021/01/20 01:32:31;;;;;;;21.77;9.50;;;;;;;1.82;93.87;99018.71;1849238;76;26854;-73
2021/01/20 01:34:59;;;;;;;9.90;6.40;;;;;;;1.80;93.71;99028.80;1818971;78;25311;-74
2021/01/20 01:37:26;;;;;;;9.90;6.50;;;;;;;1.83;93.75;99025.59;1819198;78;25678;-74
2021/01/20 01:40:09;;;;;;;14.43;7.83;;;;;;;1.85;93.71;99031.99;1819310;77;25283;-74
2021/01/20 01:42:38;;;;;;;15.90;9.13;;;;;;;1.90;93.74;99024.81;1813626;77;25392;-75
2021/01/20 01:45:06;;;;;;;17.47;10.07;;;;;;;1.91;93.76;99030.39;1819351;78;25299;-75
2021/01/20 01:47:33;;;;;;;6.83;5.33;;;;;;;1.93;93.74;99030.28;1819367;78;25190;-74
2021/01/20 01:50:02;;;;;;;5.77;5.07;;;;;;;1.97;93.89;99030.52;1813615;78;25740;-74
2021/01/20 01:52:30;;;;;;;7.27;5.63;;;;;;;1.97;93.93;99030.52;1792744;78;25498;-74
2021/01/20 01:55:24;;;;;;;7.50;6.10;;;;;;;2.03;94.00;99021.96;1849360;76;26790;-75
2021/01/20 01:57:53;;;;;;;6.87;5.50;;;;;;;1.98;93.85;99038.70;1810225;78;25320;-75
2021/01/20 02:00:20;;;;;;;5.53;4.90;;;;;;;2.01;93.92;99036.77;1787171;80;25386;-76
2021/01/20 02:03:07;;;;;;;6.50;5.70;;;;;;;2.02;93.91;99031.12;1785329;80;25321;-75
2021/01/20 02:05:34;;;;;;;6.40;5.03;;;;;;;2.03;93.91;99040.59;1793384;78;25198;-75
2021/01/20 02:08:06;;;;;;;5.23;4.50;;;;;;;2.05;93.96;99029.67;1805035;78;25294;-75
2021/01/20 02:10:36;;;;;;;6.27;5.33;;;;;;;2.08;94.01;99038.59;1818460;78;25196;-75
2021/01/20 02:13:20;;;;;;;6.90;5.30;;;;;;;2.07;93.99;99031.72;1810153;78;25549;-75
2021/01/20 02:16:10;;;;;;;6.00;5.40;;;;;;;2.10;94.01;99034.63;1790098;78;25289;-75
2021/01/20 02:18:37;;;;;;;6.57;5.10;;;;;;;2.07;94.07;99039.50;1796484;78;25718;-75
2021/01/20 02:21:29;;;;;;;6.57;5.10;;;;;;;2.08;94.06;99037.30;1813164;78;25194;-75
2021/01/20 02:24:15;;;;;;;6.57;5.43;;;;;;;2.09;94.06;99045.91;1801395;78;26344;-76
2021/01/20 02:27:03;;;;;;;6.27;4.90;;;;;;;2.10;94.08;99043.70;1794544;78;25264;-75
2021/01/20 02:30:06;;;;;;;7.23;5.57;;;;;;;2.14;94.06;99039.55;1844389;76;26814;-74
2021/01/20 02:32:42;;;;;;;8.23;6.63;;;;;;;2.17;94.23;99042.45;1849132;76;26883;-74
2021/01/20 02:35:10;;;;;;;9.93;6.93;;;;;;;2.10;94.26;99048.89;1819190;78;25670;-74
2021/01/20 02:37:37;;;;;;;9.33;6.40;;;;;;;2.10;94.28;99052.31;1804466;77;25673;-74
2021/01/20 02:40:23;;;;;;;8.23;5.97;;;;;;;2.15;94.42;99049.48;1816912;77;27024;-74
2021/01/20 02:43:08;;;;;;;8.27;5.77;;;;;;;2.07;94.26;99050.34;1880258;76;26833;-73
2021/01/20 02:45:54;;;;;;;7.93;5.77;;;;;;;1.97;94.18;99058.58;1852337;77;25278;-74
2021/01/20 02:48:21;;;;;;;6.40;5.70;;;;;;;2.00;94.44;99057.60;1859737;77;25321;-74
2021/01/20 02:50:49;;;;;;;7.53;5.40;;;;;;;1.99;94.44;99051.55;1833839;77;25737;-74
2021/01/20 02:53:18;;;;;;;7.17;5.37;;;;;;;1.98;94.47;99047.77;1825335;78;25592;-74
2021/01/20 02:55:58;;;;;;;6.30;5.70;;;;;;;1.97;94.50;99055.16;1825783;78;25295;-74
2021/01/20 02:58:33;;;;;;;7.47;5.60;;;;;;;1.97;94.49;99049.97;1821671;78;25263;-75
2021/01/20 03:01:18;;;;;;;5.97;5.17;;;;;;;1.98;94.49;99054.26;1825709;78;25153;-74
2021/01/20 03:03:46;;;;;;;6.80;5.43;;;;;;;1.96;94.57;99049.58;1825746;78;25283;-74
2021/01/20 03:06:14;;;;;;;6.00;5.30;;;;;;;1.98;94.63;99052.49;1820390;78;25230;-74
2021/01/20 03:08:40;;;;;;;6.10;5.50;;;;;;;1.97;94.62;99057.75;1826051;78;25144;-74
2021/01/20 03:11:07;;;;;;;7.60;5.30;;;;;;;1.97;94.67;99061.64;1825726;78;25758;-74
2021/01/20 03:13:35;;;;;;;7.20;5.40;;;;;;;1.97;94.65;99059.05;1825861;78;25263;-74
2021/01/20 03:16:03;;;;;;;7.37;5.93;;;;;;;1.99;94.70;99057.20;1825852;78;25679;-74
2021/01/20 03:18:30;;;;;;;6.83;5.63;;;;;;;2.00;94.60;99061.49;1825823;78;25307;-74
2021/01/20 03:20:56;;;;;;;6.40;5.10;;;;;;;2.02;94.54;99059.66;1824418;78;25667;-71
2021/01/20 03:23:22;;;;;;;7.43;5.23;;;;;;;2.03;94.50;99065.23;1821906;78;25590;-74
2021/01/20 03:25:49;;;;;;;5.20;4.70;;;;;;;2.08;94.67;99056.75;1825875;78;25770;-74
2021/01/20 03:28:18;;;;;;;6.87;4.50;;;;;;;2.09;94.62;99070.55;1823094;78;25670;-74
2021/01/20 03:30:44;;;;;;;5.13;4.40;;;;;;;2.09;94.72;99076.57;1822714;78;25310;-74
2021/01/20 03:33:11;;;;;;;4.50;4.00;;;;;;;2.13;94.73;99073.35;1820075;78;25296;-74
2021/01/20 03:35:37;;;;;;;4.83;4.33;;;;;;;2.18;94.73;99069.63;1825742;78;25256;-74
2021/01/20 03:38:03;;;;;;;5.00;3.83;;;;;;;2.15;94.70;99063.29;1825884;78;25267;-75
2021/01/20 03:40:30;;;;;;;3.90;3.50;;;;;;;2.14;94.66;99065.48;1822512;78;25281;-74
2021/01/20 03:42:56;;;;;;;3.93;3.53;;;;;;;2.15;94.71;99065.88;1823612;78;25290;-75
2021/01/20 03:45:23;;;;;;;4.63;4.00;;;;;;;2.16;94.70;99066.27;1825912;78;25382;-74
2021/01/20 03:47:49;;;;;;;4.67;3.70;;;;;;;2.18;94.70;99076.11;1825780;78;25303;-76
2021/01/20 03:50:16;;;;;;;3.90;3.50;;;;;;;2.19;94.69;99071.75;1825180;77;25139;-75
2021/01/20 03:52:42;;;;;;;5.70;4.73;;;;;;;2.18;94.63;99066.20;1820581;78;25129;-75
2021/01/20 03:55:10;;;;;;;7.10;5.07;;;;;;;2.21;94.67;99073.36;1824640;77;25631;-76
2021/01/20 03:57:36;;;;;;;5.00;4.47;;;;;;;2.22;94.62;99072.42;1820011;78;25196;-75
2021/01/20 04:00:05;;;;;;;3.90;3.50;;;;;;;2.23;94.62;99074.11;1825398;78;25298;-75
2021/01/20 04:02:32;;;;;;;4.80;3.87;;;;;;;2.25;94.63;99076.63;1821614;78;25106;-76
2021/01/20 04:05:16;;;;;;;5.27;4.07;;;;;;;2.28;94.60;99075.17;1815520;78;25269;-75
2021/01/20 04:07:43;;;;;;;6.30;5.23;;;;;;;2.29;94.55;99069.52;1818356;78;25254;-74
2021/01/20 04:10:11;;;;;;;10.53;6.73;;;;;;;2.30;94.52;99068.61;1823497;78;25185;-75
2021/01/20 04:12:38;;;;;;;14.97;8.53;;;;;;;2.30;94.45;99064.72;1825160;78;25307;-74
2021/01/20 04:15:07;;;;;;;16.80;9.87;;;;;;;2.30;94.40;99066.02;1825313;78;25307;-74
2021/01/20 04:17:36;;;;;;;19.10;10.53;;;;;;;2.33;94.33;99064.53;1821652;78;25705;-74
2021/01/20 04:20:05;;;;;;;18.20;10.07;;;;;;;2.32;94.31;99071.95;1823128;78;25284;-74
2021/01/20 04:22:35;;;;;;;21.50;12.20;;;;;;;2.31;94.25;99074.16;1825121;78;25295;-74
2021/01/20 04:25:03;;;;;;;19.40;10.73;;;;;;;2.33;94.09;99071.02;1825448;78;25274;-75
2021/01/20 04:27:30;;;;;;;19.57;10.50;;;;;;;2.30;94.13;99072.03;1825313;78;25735;-75
2021/01/20 04:29:57;;;;;;;16.57;9.73;;;;;;;2.34;93.99;99077.42;1824954;78;25722;-75
2021/01/20 04:32:23;;;;;;;15.17;9.13;;;;;;;2.36;93.96;99087.30;1825215;78;25366;-75
2021/01/20 04:34:50;;;;;;;14.73;8.03;;;;;;;2.35;93.89;99074.39;1825159;78;25705;-75
2021/01/20 04:37:16;;;;;;;13.93;7.87;;;;;;;2.35;93.80;99083.48;1825319;78;25105;-75
2021/01/20 04:39:43;;;;;;;12.50;7.03;;;;;;;2.35;93.74;99083.48;1825205;78;25109;-75
2021/01/20 04:42:10;;;;;;;13.10;7.77;;;;;;;2.36;93.69;99086.43;1823189;78;25315;-74
2021/01/20 04:44:36;;;;;;;14.43;8.23;;;;;;;2.34;93.73;99080.49;1821305;78;25718;-75
2021/01/20 04:47:05;;;;;;;18.07;9.00;;;;;;;2.35;93.62;99081.70;1825186;78;25678;-75
2021/01/20 04:49:34;;;;;;;21.13;9.77;;;;;;;2.35;93.54;99079.11;1824140;78;25700;-75
2021/01/20 04:52:02;;;;;;;23.60;12.30;;;;;;;2.32;93.52;99075.84;1820916;78;25331;-74
2021/01/20 04:54:30;;;;;;;17.80;8.23;;;;;;;2.30;93.49;99074.62;1824942;78;25307;-74
2021/01/20 04:56:57;;;;;;;12.83;7.10;;;;;;;2.29;93.37;99082.02;1825299;78;25266;-75
2021/01/20 04:59:29;;;;;;;7.37;5.47;;;;;;;2.25;93.34;99069.31;1825490;77;25272;-75
2021/01/20 05:02:04;;;;;;;8.00;5.60;;;;;;;2.23;93.30;99065.03;1888681;76;26812;-73
2021/01/20 05:04:31;;;;;;;9.27;6.13;;;;;;;2.16;93.27;99064.11;1859693;77;25736;-73
2021/01/20 05:06:58;;;;;;;10.00;6.33;;;;;;;2.11;93.16;99062.22;1859492;77;25269;-74
2021/01/20 05:09:25;;;;;;;9.63;6.67;;;;;;;2.04;93.22;99059.11;1827107;77;25297;-74
2021/01/20 05:11:52;;;;;;;8.10;5.57;;;;;;;1.99;93.28;99063.23;1859423;76;25799;-74
2021/01/20 05:14:18;;;;;;;7.27;5.53;;;;;;;1.94;93.31;99060.03;1858150;77;25284;-74
2021/01/20 05:16:50;;;;;;;6.93;5.33;;;;;;;1.90;93.39;99065.02;1840609;77;25735;-73
2021/01/20 05:19:17;;;;;;;6.07;4.93;;;;;;;1.88;93.38;99062.09;1859536;77;25720;-73
2021/01/20 05:24:40;;;;;;;6.87;4.80;;;;;;;1.87;93.51;99063.03;1888817;76;26839;-73
2021/01/20 05:27:07;;;;;;;7.13;5.70;;;;;;;1.76;93.37;99064.42;1859563;76;25051;-72
2021/01/20 05:29:35;;;;;;;6.73;5.20;;;;;;;1.72;93.48;99065.47;1859584;77;25744;-74
2021/01/20 05:32:20;;;;;;;5.43;4.10;;;;;;;1.66;93.55;99072.28;1859433;77;25302;-74
2021/01/20 05:35:07;;;;;;;5.23;4.33;;;;;;;1.64;93.64;99076.68;1846080;77;25244;-74
2021/01/20 05:37:46;;;;;;;5.57;4.20;;;;;;;1.59;93.59;99076.94;1858192;77;25695;-73
2021/01/20 05:40:17;;;;;;;4.30;3.90;;;;;;;1.58;93.68;99082.19;1858700;77;25293;-72
2021/01/20 05:42:53;;;;;;;5.37;3.97;;;;;;;1.58;93.83;99079.13;1844105;77;26058;-73
2021/01/20 05:45:23;;;;;;;5.50;4.27;;;;;;;1.55;94.02;99082.34;1825975;78;25193;-74
2021/01/20 05:48:07;;;;;;;5.03;4.40;;;;;;;1.52;94.37;99080.72;1835951;77;25259;-74
2021/01/20 05:50:37;;;;;;;6.33;5.40;;;;;;;1.51;94.23;99071.29;1845306;77;25240;-74
2021/01/20 05:53:08;;;;;;;5.67;5.07;;;;;;;1.48;94.18;99065.78;1825938;78;25667;-74
2021/01/20 05:55:37;;;;;;;7.50;5.10;;;;;;;1.51;94.24;99069.98;1825823;78;25668;-74
2021/01/20 05:58:05;;;;;;;6.00;5.20;;;;;;;1.55;94.30;99071.97;1825749;78;25315;-73
2021/01/20 06:00:31;;;;;;;6.63;5.30;;;;;;;1.56;94.29;99068.45;1825697;78;25187;-74
2021/01/20 06:02:58;;;;;;;11.50;10.17;;;;;;;1.58;94.31;99078.30;1825539;78;25695;-74
2021/01/20 06:05:26;;;;;;;11.23;9.37;;;;;;;1.60;94.34;99072.58;1825483;78;25156;-74
2021/01/20 06:07:53;;;;;;;10.13;8.20;;;;;;;1.58;94.41;99086.91;1822140;78;25831;-75
2021/01/20 06:10:21;;;;;;;9.27;7.77;;;;;;;1.59;94.52;99086.44;1825782;78;25496;-74
2021/01/20 06:12:49;;;;;;;9.60;7.70;;;;;;;1.59;94.63;99095.52;1825583;78;25117;-74
2021/01/20 06:15:16;;;;;;;8.07;7.27;;;;;;;1.57;94.52;99110.31;1825792;78;25263;-74
2021/01/20 06:17:44;;;;;;;7.97;7.07;;;;;;;1.60;94.58;99116.18;1825728;78;25319;-74
2021/01/20 06:20:11;;;;;;;8.67;7.23;;;;;;;1.64;94.66;99117.72;1825760;78;25335;-74
2021/01/20 06:22:47;;;;;;;10.17;8.87;;;;;;;1.67;94.80;99112.36;1824543;78;25778;-73
2021/01/20 06:25:32;;;;;;;10.43;8.17;;;;;;;1.68;94.86;99109.33;1801523;79;25527;-74
2021/01/20 06:28:07;;;;;;;9.83;8.27;;;;;;;1.71;94.94;99114.38;1801390;79;25313;-73
2021/01/20 06:30:44;;;;;;;9.93;7.93;;;;;;;1.79;94.87;99103.60;1825031;76;26869;-73
2021/01/20 06:33:13;;;;;;;9.13;7.53;;;;;;;1.75;94.78;99100.80;1818985;78;25179;-73
2021/01/20 06:35:47;;;;;;;12.13;10.13;;;;;;;1.74;94.79;99102.53;1819350;78;25239;-74
2021/01/20 06:38:36;;;;;;;11.73;10.53;;;;;;;1.76;94.93;99092.08;1819190;78;25255;-73
2021/01/20 06:41:07;;;;;;;11.83;9.13;;;;;;;1.79;95.11;99090.20;1812508;78;25251;-73
2021/01/20 06:43:47;;;;;;;11.03;8.83;;;;;;;1.91;95.24;99095.23;1799132;77;27004;-73
2021/01/20 06:46:25;;;;;;;9.43;8.20;;;;;;;1.87;95.19;99088.97;1765197;80;25677;-73
2021/01/20 06:48:57;;;;;;;12.43;8.83;;;;;;;1.88;95.27;99091.48;1756722;81;25704;-73
2021/01/20 06:51:28;;;;;;;12.17;10.23;;;;;;;1.93;95.15;99089.94;1740195;81;25332;-74
2021/01/20 06:54:12;;;;;;;9.53;8.03;;;;;;;1.95;95.05;99086.83;1741604;81;25315;-74
2021/01/20 06:56:52;;;;;;;10.30;7.90;;;;;;;1.98;95.14;99078.89;1743592;81;25160;-74
2021/01/20 06:59:28;;;;;;;8.50;7.03;;;;;;;2.03;95.12;99084.22;1730271;81;25694;-73
2021/01/20 07:02:09;;;;;;;7.77;6.53;;;;;;;2.08;95.14;99087.02;1739419;81;25318;-74
2021/01/20 07:04:53;;;;;;;8.60;7.37;;;;;;;2.10;95.12;99078.26;1723057;83;25294;-74
2021/01/20 07:07:53;;;;;;;8.30;7.40;;;;;;;2.15;95.15;99086.64;1723309;83;25232;-73
2021/01/20 07:10:24;;;;;;;8.63;7.00;;;;;;;2.21;95.06;99080.28;1731271;81;25712;-74
2021/01/20 07:13:16;;;;;;;9.60;8.60;;;;;;;2.32;95.04;99076.67;1888645;75;26871;-73
2021/01/20 07:15:45;;;;;;;11.37;8.60;;;;;;;2.30;94.99;99074.62;1859562;77;25253;-72
2021/01/20 07:18:13;;;;;;;7.07;6.37;;;;;;;2.35;94.92;99071.33;1859714;77;25680;-74
2021/01/20 07:20:41;;;;;;;10.47;8.07;;;;;;;2.44;94.85;99068.70;1859712;77;25269;-74
2021/01/20 07:23:08;;;;;;;8.73;6.63;;;;;;;2.49;94.75;99074.95;1859549;76;25288;-74
2021/01/20 07:25:35;;;;;;;9.43;7.17;;;;;;;2.53;94.67;99081.20;1847675;76;25320;-74
2021/01/20 07:28:02;;;;;;;8.13;7.03;;;;;;;2.59;94.56;99082.16;1825809;78;25331;-74
2021/01/20 07:30:29;;;;;;;8.63;7.00;;;;;;;2.66;94.52;99085.27;1835705;77;25366;-73
2021/01/20 07:32:57;;;;;;;11.83;7.70;;;;;;;2.75;94.30;99078.29;1825962;78;25627;-74
2021/01/20 07:35:26;;;;;;;9.03;7.97;;;;;;;2.83;94.28;99077.85;1830721;77;25259;-74
2021/01/20 07:38:05;;;;;;;9.43;8.00;;;;;;;2.92;94.06;99073.47;1825810;78;25166;-74
2021/01/20 07:40:33;;;;;;;10.90;8.60;;;;;;;3.01;93.80;99071.29;1826121;78;25230;-74
2021/01/20 07:43:00;;;;;;;9.60;8.10;;;;;;;3.12;93.38;99063.74;1793701;78;25129;-75
2021/01/20 07:45:36;;;;;;;8.00;6.90;;;;;;;3.16;93.30;99067.83;1830488;77;25370;-75
2021/01/20 07:48:05;;;;;;;8.60;7.23;;;;;;;3.26;92.62;99066.86;1852274;77;25344;-75
2021/01/20 07:50:46;;;;;;;7.60;6.20;;;;;;;3.27;92.76;99062.87;1857971;77;25177;-75
2021/01/20 07:53:15;;;;;;;8.37;7.10;;;;;;;3.34;92.33;99065.48;1855515;77;25283;-74
2021/01/20 07:55:42;;;;;;;7.63;6.90;;;;;;;3.40;91.76;99069.97;1838138;77;25059;-74
2021/01/20 07:58:09;;;;;;;7.50;6.70;;;;;;;3.46;91.98;99073.52;1811378;77;25304;-74
2021/01/20 08:00:46;;;;;;;8.67;7.00;;;;;;;3.52;91.74;99074.48;1855189;77;25129;-74
2021/01/20 08:03:34;;;;;;;8.13;6.20;;;;;;;3.60;91.20;99074.85;1855433;77;25110;-74
2021/01/20 08:06:06;;;;;;;8.10;6.37;;;;;;;3.64;91.01;99076.84;1834940;77;25306;-74
2021/01/20 08:08:31;;;;;;;11.57;7.70;;;;;;;3.68;90.73;99075.72;1754641;81;25841;-74
2021/01/20 08:11:00;;;;;;;16.90;11.10;;;;;;;3.80;90.22;99074.17;1760620;78;25595;-73
2021/01/20 08:13:28;;;;;;;16.17;10.23;;;;;;;3.84;90.19;99070.48;1771198;80;25256;-74
2021/01/20 08:15:55;;;;;;;13.97;9.90;;;;;;;3.90;90.03;99067.05;1791789;80;25742;-74
2021/01/20 08:18:23;;;;;;;10.97;9.03;;;;;;;4.00;89.85;99065.19;1780941;79;25176;-74
2021/01/20 08:20:50;;;;;;;15.10;8.40;;;;;;;4.03;89.36;99067.61;1791552;80;25277;-74
2021/01/20 08:23:49;;;;;;;9.87;8.40;;;;;;;4.06;88.84;99065.66;1791385;80;25320;-73
2021/01/20 08:26:20;;;;;;;10.27;8.17;;;;;;;4.09;88.45;99069.38;1789010;80;25659;-73
2021/01/20 08:29:11;;;;;;;8.07;6.70;;;;;;;4.13;87.88;99072.64;1761294;80;25150;-73
2021/01/20 08:31:39;;;;;;;10.97;7.87;;;;;;;4.20;87.16;99064.00;1761923;80;25561;-73
2021/01/20 08:34:23;;;;;;;11.33;9.30;;;;;;;4.16;87.24;99067.73;1791276;80;25170;-74
2021/01/20 08:37:03;;;;;;;15.13;12.23;;;;;;;4.20;87.10;99069.20;1849444;76;26850;-74
2021/01/20 08:39:36;;;;;;;15.67;12.87;;;;;;;4.16;87.04;99075.06;1819330;78;25322;-73
2021/01/20 08:42:32;;;;;;;14.00;11.80;;;;;;;4.17;86.93;99075.89;1819217;78;25329;-74
2021/01/20 08:45:15;;;;;;;25.27;16.50;;;;;;;4.18;86.69;99077.58;1818906;78;26360;-74
2021/01/20 08:48:02;;;;;;;17.20;12.20;;;;;;;4.25;86.58;99078.87;1815440;77;25223;-74
2021/01/20 08:50:36;;;;;;;11.00;8.20;;;;;;;4.31;86.25;99082.86;1806531;78;25115;-75
2021/01/20 08:53:16;;;;;;;7.93;6.70;;;;;;;4.32;86.07;99081.47;1771751;80;25308;-74
2021/01/20 08:55:55;;;;;;;11.07;8.23;;;;;;;4.47;85.18;99081.00;1849333;76;27470;-74
2021/01/20 08:58:31;;;;;;;9.40;6.97;;;;;;;4.43;84.91;99081.66;1819335;78;25192;-75
2021/01/20 09:01:03;;;;;;;9.57;7.77;;;;;;;4.50;84.25;99074.31;1819039;78;25195;-75
2021/01/20 09:03:34;;;;;;;10.00;7.27;;;;;;;4.54;84.08;99075.81;1819344;78;25291;-74
2021/01/20 09:06:04;;;;;;;14.10;9.10;;;;;;;4.62;83.61;99085.73;1819167;78;25649;-74
2021/01/20 09:08:31;;;;;;;13.83;9.80;;;;;;;4.61;83.24;99076.27;1818934;78;25325;-76
2021/01/20 09:10:59;;;;;;;12.73;8.80;;;;;;;4.65;83.33;99088.98;1819216;78;25356;-74
2021/01/20 09:13:26;;;;;;;23.93;14.07;;;;;;;4.64;82.95;99087.33;1787902;78;25092;-74
2021/01/20 09:15:54;;;;;;;37.47;21.13;;;;;;;4.67;83.23;99096.71;1818581;77;25330;-75
2021/01/20 09:18:24;;;;;;;13.57;8.07;;;;;;;4.75;82.56;99097.08;1819276;78;25725;-74
2021/01/20 09:20:53;;;;;;;12.17;8.23;;;;;;;4.76;82.67;99080.52;1818951;77;25128;-74
2021/01/20 09:23:21;;;;;;;7.93;6.43;;;;;;;4.86;82.02;99089.05;1816729;78;25183;-74
2021/01/20 09:25:50;;;;;;;12.10;8.53;;;;;;;4.86;81.69;99087.30;1819322;78;26166;-74
2021/01/20 09:28:18;;;;;;;9.40;6.33;;;;;;;4.81;81.76;99086.76;1788281;78;25709;-75
2021/01/20 09:30:45;;;;;;;31.80;15.50;;;;;;;4.83;81.55;99084.89;1787836;78;25266;-74
2021/01/20 09:33:12;;;;;;;18.07;9.90;;;;;;;4.84;81.56;99098.27;1788452;78;25551;-73
2021/01/20 09:35:40;;;;;;;25.73;12.30;;;;;;;4.85;80.89;99097.34;1788281;78;25165;-76
2021/01/20 09:38:07;;;;;;;47.83;22.43;;;;;;;4.84;80.58;99106.08;1787149;78;26410;-75
2021/01/20 09:40:34;;;;;;;28.77;14.97;;;;;;;4.85;80.77;99105.16;1818934;78;25140;-75
2021/01/20 09:43:01;;;;;;;31.50;14.80;;;;;;;4.82;80.89;99113.16;1818432;78;25183;-75
2021/01/20 09:45:29;;;;;;;30.50;15.07;;;;;;;4.78;80.75;99107.31;1819159;78;25262;-74
2021/01/20 09:48:05;;;;;;;27.00;13.50;;;;;;;4.73;81.51;99105.45;1819250;78;25208;-76
2021/01/20 09:50:35;;;;;;;24.87;12.97;;;;;;;4.77;81.12;99108.70;1819812;78;25168;-75
2021/01/20 09:53:03;;;;;;;26.80;13.57;;;;;;;4.77;80.83;99110.01;1822525;78;25608;-76
2021/01/20 09:55:30;;;;;;;50.53;21.97;;;;;;;4.72;80.51;99107.68;1820703;78;25194;-72
2021/01/20 09:57:57;;;;;;;32.83;15.20;;;;;;;4.76;80.00;99111.79;1820619;78;25284;-75
2021/01/20 10:00:24;;;;;;;31.00;15.23;;;;;;;4.70;80.44;99106.12;1820116;78;25306;-76
2021/01/20 10:02:51;;;;;;;30.77;14.07;;;;;;;4.75;80.43;99099.68;1820647;78;25290;-75
2021/01/20 10:05:18;;;;;;;13.47;7.97;;;;;;;4.85;80.25;99100.42;1820645;78;25620;-75
2021/01/20 10:07:45;;;;;;;24.63;11.63;;;;;;;4.87;80.20;99093.34;1820111;78;25232;-75
2021/01/20 10:12:53;;;;;;;59.17;27.23;;;;;;;4.99;79.06;99089.95;1848939;75;26814;-76
2021/01/20 10:15:18;;;;;;;38.77;16.90;;;;;;;4.98;79.09;99094.81;1818786;78;25749;-74
2021/01/20 10:17:44;;;;;;;38.63;16.10;;;;;;;4.98;79.20;99090.91;1819091;78;25694;-74
2021/01/20 10:20:11;;;;;;;83.53;35.50;;;;;;;5.04;78.88;99090.50;1819144;78;25302;-75
2021/01/20 10:22:38;;;;;;;57.27;23.57;;;;;;;5.09;78.47;99087.13;1818948;78;25247;-74
2021/01/20 10:25:06;;;;;;;57.83;28.30;;;;;;;5.09;77.54;99084.52;1819238;78;25333;-75
2021/01/20 10:27:33;;;;;;;46.83;28.60;;;;;;;5.18;78.19;99087.03;1819029;78;25306;-74
2021/01/20 10:30:00;;;;;;;17.97;8.90;;;;;;;5.23;78.47;99082.36;1819386;78;25599;-75
2021/01/20 10:32:27;;;;;;;24.60;15.17;;;;;;;5.36;78.15;99078.03;1818454;78;25052;-75
2021/01/20 10:34:54;;;;;;;35.10;21.83;;;;;;;5.45;78.34;99066.62;1819114;78;25674;-76
2021/01/20 10:37:21;;;;;;;19.93;12.60;;;;;;;5.55;78.36;99072.44;1818812;78;25251;-75
2021/01/20 10:39:48;;;;;;;69.23;30.37;;;;;;;5.68;77.81;99072.47;1806592;78;25630;-74
2021/01/20 10:42:15;;;;;;;13.90;8.33;;;;;;;5.82;77.14;99068.94;1769750;80;25798;-74
2021/01/20 10:44:42;;;;;;;24.80;13.00;;;;;;;5.97;76.03;99070.20;1789533;78;25330;-74
2021/01/20 10:47:08;;;;;;;29.20;14.70;;;;;;;6.03;76.74;99071.06;1818565;78;25278;-76
2021/01/20 10:49:35;;;;;;;59.90;26.93;;;;;;;6.18;77.03;99075.23;1819183;78;25739;-76
2021/01/20 10:52:02;;;;;;;41.70;19.03;;;;;;;6.38;76.13;99071.73;1786313;80;25739;-76
2021/01/20 10:54:29;;;;;;;12.53;8.13;;;;;;;6.54;76.38;99068.91;1786784;80;25218;-75
2021/01/20 10:56:55;;;;;;;36.63;18.27;;;;;;;6.81;75.52;99072.66;1786452;80;25688;-76
2021/01/20 10:59:22;;;;;;;15.63;9.10;;;;;;;7.00;75.00;99067.77;1786691;80;25308;-75
2021/01/20 11:01:48;;;;;;;38.77;19.57;;;;;;;7.12;74.91;99062.61;1786421;80;25226;-76
2021/01/20 11:04:17;;;;;;;43.83;20.40;;;;;;;7.25;73.67;99059.47;1786740;80;25320;-76
2021/01/20 11:06:44;;;;;;;25.33;13.43;;;;;;;7.34;72.99;99050.11;1786768;80;26350;-76
2021/01/20 11:09:11;;;;;;;16.10;9.83;;;;;;;7.41;72.81;99057.41;1786059;80;25175;-76
2021/01/20 11:11:37;;;;;;;30.67;15.63;;;;;;;7.43;72.58;99055.98;1786158;80;25324;-77
2021/01/20 11:14:04;;;;;;;11.97;6.80;;;;;;;7.42;72.71;99057.78;1786489;80;25195;-76
2021/01/20 11:16:31;;;;;;;17.10;10.07;;;;;;;7.43;72.95;99054.67;1785455;80;25312;-76
2021/01/20 11:19:18;;;;;;;11.90;7.13;;;;;;;7.42;72.18;99053.85;1732748;78;25231;-67
2021/01/20 11:21:45;;;;;;;13.93;8.30;;;;;;;7.36;71.46;99055.60;1771784;80;26311;-66
2021/01/20 11:24:12;;;;;;;14.20;8.07;;;;;;;7.25;70.94;99047.22;1836910;78;26033;-66
2021/01/20 11:26:40;;;;;;;10.30;6.40;;;;;;;7.15;71.21;99046.70;1835844;78;25625;-67
2021/01/20 11:29:07;;;;;;;15.67;9.27;;;;;;;7.12;70.86;99049.53;1782922;78;26322;-67
2021/01/20 11:31:34;;;;;;;15.23;9.37;;;;;;;7.17;71.14;99048.27;1829336;78;25725;-67
2021/01/20 11:34:00;;;;;;;11.73;7.63;;;;;;;7.21;70.94;99047.58;1831559;78;25263;-67
2021/01/20 11:36:27;;;;;;;61.50;45.07;;;;;;;7.24;69.87;99041.64;1836218;78;25747;-69
2021/01/20 11:38:54;;;;;;;56.37;38.80;;;;;;;7.21;70.29;99033.19;1836831;78;25267;-67
2021/01/20 11:41:20;;;;;;;24.13;16.93;;;;;;;7.24;70.12;99040.33;1836388;78;25306;-68
2021/01/20 11:43:47;;;;;;;26.43;18.77;;;;;;;7.34;70.45;99037.02;1836916;78;25712;-68
2021/01/20 11:46:15;;;;;;;19.30;14.03;;;;;;;7.47;69.37;99041.71;1836527;78;25126;-68
2021/01/20 11:48:42;;;;;;;26.63;20.63;;;;;;;7.48;68.93;99042.57;1836913;78;25200;-67
2021/01/20 11:51:09;;;;;;;17.83;12.23;;;;;;;7.42;69.19;99034.23;1836364;78;26755;-68
2021/01/20 11:53:36;;;;;;;16.27;11.17;;;;;;;7.44;68.96;99027.58;1833270;78;26361;-68
2021/01/20 11:56:03;;;;;;;37.03;27.80;;;;;;;7.49;68.47;99028.06;1808968;78;26759;-67
2021/01/20 11:58:29;;;;;;;22.27;17.67;;;;;;;7.50;67.91;99023.66;1836784;78;25275;-68